16:36
Airports
Links
Donate
Help keep this website running!
PayPal
Bitcoin
METAR
SKRG 231600Z 12004KT 9999 FEW015 BKN100 20/14 A3030
Current Weather Conditions at SKRG
VFR 16:00:00 23-09-17
Altimeter:30.30 hg
Temp:20.0°c 68°f
Dew point:14.0°c 57°f
Wind:4 knots, 4.6 mph, 2 m/s, from 120°
Visibility:6.21 statute miles
10000(BKN) Broken
1500(FEW) A few
Past METAR reports
VFR 15:00:00 23-09-17
Altimeter:30.33 hg
Temp:18.0°c 64°f
Dew point:14.0°c 57°f
Wind:2 knots, 2.3 mph, 1 m/s,
Variable direction
Visibility:6.21 statute miles
10000(OVC) Overcast
1200(FEW) A few
SKRG 231500Z VRB02KT 9999 FEW012 OVC100 18/14 A3033
VFR 14:00:00 23-09-17
Altimeter:30.33 hg
Temp:15.0°c 59°f
Dew point:14.0°c 57°f
Wind:3 knots, 3.5 mph, 2 m/s, from 130°
Visibility:6.21 statute miles
9000(OVC) Overcast
800(SCT) Scattered
SKRG 231400Z 13003KT 9999 SCT008 OVC090 15/14 A3033
VFR 13:00:00 23-09-17
Altimeter:30.31 hg
Temp:14.0°c 57°f
Dew point:14.0°c 57°f
Wind:3 knots, 3.5 mph, 2 m/s, from 190°
Visibility:6.21 statute miles
8000(OVC) Overcast
800(FEW) A few
SKRG 231300Z 19003KT 9999 VCSH FEW008 OVC080 14/14 A3031 REDZ RMK VCSH/E
VFR 12:00:00 23-09-17
Altimeter:30.30 hg
Temp:13.0°c 55°f
Dew point:13.0°c 55°f
Wind:3 knots, 3.5 mph, 2 m/s, from 300°
Visibility:6.21 statute miles
8000(OVC) Overcast
800(SCT) Scattered
SKRG 231200Z 30003KT 9999 -DZ SCT008 OVC080 13/13 A3030
VFR 11:00:00 23-09-17
Altimeter:30.30 hg
Temp:14.0°c 57°f
Dew point:13.0°c 55°f
Wind:0 knots, 0 mph, 0 m/s,
Variable direction
Visibility:6.21 statute miles
8000(OVC) Overcast
1200(SCT) Scattered
SKRG 231100Z 00000KT 9999 -DZ SCT012 OVC080 14/13 A3030
TAF
TAF SKRG 231100Z 2312/2412 00000KT 6000 RADZ SCT012 OVC080 BECMG 2314/2315 12008KT 9999 NSW SCT020 SCT200 TEMPO 2320/2323 8000 DZ SCT017TCU BKN090 BECMG 2400/2402 00000KT TX24/2319Z TN11/2411Z
Forecast at SKRG
12:00 23-09-17 to 14:00 23-09-17
RA DZ
Wind:0 Knots Variable direction
Visibility:3.73 statute miles
1200SCT Scattered
8000OVC Overcast
BECMG 14:00 23-09-17 to 00:00 24-09-17
NSW
Wind:8 Knots from 120°
Visibility:6.21 statute miles
2000SCT Scattered
20000SCT Scattered
TEMPO 20:00 23-09-17 to 23:00 23-09-17
DZ
Visibility:4.97 statute miles
1700SCT Scattered
9000BKN Broken
BECMG 00:00 24-09-17 to 12:00 24-09-17
NSW
Wind:0 Knots Variable direction
Visibility:6.21 statute miles
2000SCT Scattered
20000SCT Scattered